Time;durP1;ratioP1;P1;durP2;ratioP2;P2;SDS_P1;SDS_P2;PMS_P1;PMS_P2;Temp;Humidity;BMP_temperature;BMP_pressure;BME280_temperature;BME280_humidity;BME280_pressure;Samples;Min_cycle;Max_cycle;Signal;HPM_P1;HPM_P2
2023/04/07 00:00:26;;;;;;;12.70;7.10;;;;;;;4.19;65.29;101082.66;6074556;28;20121;-70
2023/04/07 00:03:22;;;;;;;17.63;7.10;;;;;;;4.16;65.07;101080.22;6076188;28;20029;-70
2023/04/07 00:06:17;;;;;;;16.48;7.70;;;;;;;4.10;64.38;101077.16;6076906;28;20034;-70
2023/04/07 00:09:12;;;;;;;15.20;8.17;;;;;;;4.16;64.66;101072.34;6076711;28;20040;-70
2023/04/07 00:12:08;;;;;;;16.50;7.80;;;;;;;4.25;64.73;101089.28;6076621;28;20029;-70
2023/04/07 00:15:03;;;;;;;12.83;7.13;;;;;;;4.15;64.76;101067.19;6075708;28;20471;-71
2023/04/07 00:17:58;;;;;;;16.27;6.97;;;;;;;4.13;65.30;101069.09;6076328;28;20025;-71
2023/04/07 00:20:54;;;;;;;15.30;7.60;;;;;;;4.08;65.72;101068.50;6076015;28;20092;-71
2023/04/07 00:23:49;;;;;;;15.93;7.65;;;;;;;4.03;65.87;101070.56;6075371;28;20087;-71
2023/04/07 00:26:45;;;;;;;16.30;8.27;;;;;;;4.06;65.47;101070.38;6076287;28;20120;-70
2023/04/07 00:29:42;;;;;;;14.97;7.23;;;;;;;4.03;66.38;101054.84;6076074;28;20128;-70
2023/04/07 00:32:37;;;;;;;13.95;6.65;;;;;;;4.02;65.50;101064.47;6076307;28;20055;-70
2023/04/07 00:35:33;;;;;;;15.00;7.07;;;;;;;3.94;65.54;101056.25;6075148;28;20494;-71
2023/04/07 00:38:28;;;;;;;14.17;7.33;;;;;;;3.91;66.64;101055.63;6075322;28;20100;-71
2023/04/07 00:41:23;;;;;;;15.80;8.63;;;;;;;3.77;66.73;101053.00;6075481;28;20040;-70
2023/04/07 00:44:19;;;;;;;16.88;7.70;;;;;;;3.67;67.97;101057.13;6074769;28;20466;-70
2023/04/07 00:47:14;;;;;;;16.83;7.53;;;;;;;3.66;68.67;101066.78;6075896;28;20056;-70
2023/04/07 00:50:10;;;;;;;19.60;8.35;;;;;;;3.51;68.84;101073.78;6075488;28;20113;-70
2023/04/07 00:53:05;;;;;;;14.40;7.60;;;;;;;3.41;69.18;101062.16;6075687;28;20120;-70
2023/04/07 00:56:00;;;;;;;17.58;7.50;;;;;;;3.40;69.61;101060.47;6052532;28;20040;-71
2023/04/07 00:58:56;;;;;;;13.57;7.73;;;;;;;3.50;68.86;101072.09;6075258;28;20478;-71
2023/04/07 01:02:02;;;;;;;13.90;7.00;;;;;;;3.39;69.58;101053.56;6075549;28;20272;-71
2023/04/07 01:05:22;;;;;;;16.52;7.90;;;;;;;3.45;70.17;101063.66;6095610;28;20154;-70
2023/04/07 01:08:44;;;;;;;18.02;8.75;;;;;;;3.40;70.18;101063.09;6036601;28;20045;-71
2023/04/07 01:11:43;;;;;;;15.60;7.97;;;;;;;3.28;69.72;101045.50;6070284;28;20367;-70
2023/04/07 01:14:46;;;;;;;17.15;8.48;;;;;;;3.38;69.62;101059.72;6089891;28;20041;-70
2023/04/07 01:17:45;;;;;;;15.70;7.80;;;;;;;3.37;69.74;101057.22;6057286;28;20029;-71
2023/04/07 01:20:42;;;;;;;16.08;8.75;;;;;;;3.35;70.42;101054.66;6075355;28;20490;-70
2023/04/07 01:23:59;;;;;;;17.00;8.25;;;;;;;3.28;69.75;101057.75;6088859;28;20044;-70
2023/04/07 01:26:59;;;;;;;17.40;9.00;;;;;;;3.23;70.44;101063.28;6075104;28;20041;-70
2023/04/07 01:29:55;;;;;;;17.83;8.77;;;;;;;3.10;70.69;101056.22;6090298;28;20042;-71
2023/04/07 01:32:52;;;;;;;16.10;8.05;;;;;;;2.99;71.01;101043.72;6075287;28;20075;-70
2023/04/07 01:35:48;;;;;;;18.08;9.80;;;;;;;2.94;70.97;101045.78;6074030;28;20061;-70
2023/04/07 01:38:44;;;;;;;19.15;9.48;;;;;;;2.92;71.70;101045.03;6057111;28;20044;-71
2023/04/07 01:41:40;;;;;;;16.08;8.85;;;;;;;2.87;71.55;101044.47;6074832;28;20501;-71
2023/04/07 01:44:36;;;;;;;16.80;8.23;;;;;;;2.81;72.91;101042.19;6073922;28;20056;-70
2023/04/07 01:47:31;;;;;;;16.42;8.00;;;;;;;2.85;72.21;101051.56;6057494;28;20390;-71
2023/04/07 01:50:28;;;;;;;18.33;8.52;;;;;;;2.87;72.63;101065.41;6091244;28;20033;-72
2023/04/07 01:53:24;;;;;;;14.32;6.63;;;;;;;2.81;73.43;101073.59;6078996;28;20113;-70
2023/04/07 01:56:20;;;;;;;18.60;8.57;;;;;;;2.73;73.30;101054.88;6089839;28;20034;-70
2023/04/07 01:59:15;;;;;;;20.60;8.45;;;;;;;2.67;73.19;101050.00;6074286;28;20080;-70
2023/04/07 02:02:10;;;;;;;18.10;8.40;;;;;;;2.72;73.58;101056.66;6074654;28;20064;-70
2023/04/07 02:05:08;;;;;;;18.90;7.60;;;;;;;2.75;73.16;101071.34;6079378;28;20040;-70
2023/04/07 02:08:05;;;;;;;19.55;8.00;;;;;;;2.74;73.59;101059.19;6073726;28;20268;-70
2023/04/07 02:11:02;;;;;;;16.02;8.68;;;;;;;2.66;73.25;101064.03;6073737;28;20379;-70
2023/04/07 02:13:59;;;;;;;20.98;8.68;;;;;;;2.54;73.37;101049.00;6072583;28;20108;-69
2023/04/07 02:16:54;;;;;;;15.38;7.47;;;;;;;2.63;72.68;101067.66;6089062;28;20026;-70
2023/04/07 02:19:52;;;;;;;16.73;8.77;;;;;;;2.42;73.13;101040.91;6073480;28;20040;-71
2023/04/07 02:22:47;;;;;;;19.10;8.32;;;;;;;2.46;73.86;101059.06;6088182;28;20398;-70
2023/04/07 02:25:42;;;;;;;16.88;8.60;;;;;;;2.42;73.74;101058.38;6072366;28;20037;-70
2023/04/07 02:28:38;;;;;;;19.17;7.33;;;;;;;2.43;73.12;101054.84;6073321;28;20033;-70
2023/04/07 02:31:33;;;;;;;14.57;7.60;;;;;;;2.45;73.04;101062.63;6073291;28;20056;-70
2023/04/07 02:34:28;;;;;;;17.70;7.00;;;;;;;2.39;72.96;101053.34;6072654;28;20470;-70
2023/04/07 02:37:23;;;;;;;17.73;7.50;;;;;;;2.42;72.62;101058.38;6073336;28;20040;-70
2023/04/07 02:40:19;;;;;;;16.07;7.53;;;;;;;2.37;71.83;101052.56;6073099;28;20044;-70
2023/04/07 02:43:15;;;;;;;15.27;7.63;;;;;;;2.44;72.20;101055.69;6073585;28;20125;-71
2023/04/07 02:46:10;;;;;;;17.33;7.80;;;;;;;2.42;71.48;101057.56;6075117;28;20143;-70
2023/04/07 02:49:05;;;;;;;21.97;8.43;;;;;;;2.54;72.20;101067.31;6073213;28;20613;-70
2023/04/07 02:52:01;;;;;;;21.87;8.23;;;;;;;2.51;71.83;101072.72;6073543;28;20040;-70
2023/04/07 02:54:56;;;;;;;16.80;8.27;;;;;;;2.50;71.43;101055.34;6072713;28;20035;-70
2023/04/07 02:57:51;;;;;;;16.93;7.43;;;;;;;2.45;70.54;101054.78;6072969;28;20041;-70
2023/04/07 03:00:47;;;;;;;13.07;6.90;;;;;;;2.46;70.76;101049.44;6073374;28;20119;-71
2023/04/07 03:03:43;;;;;;;19.00;8.20;;;;;;;2.44;70.94;101060.94;6072627;28;20510;-70
2023/04/07 03:06:39;;;;;;;16.30;7.68;;;;;;;2.39;71.23;101056.78;6072716;28;20043;-70
2023/04/07 03:09:34;;;;;;;15.57;7.40;;;;;;;2.41;71.02;101051.47;6072683;28;20475;-71
2023/04/07 03:12:29;;;;;;;15.80;7.80;;;;;;;2.47;71.14;101060.75;6072840;28;20037;-70
2023/04/07 03:15:25;;;;;;;14.17;7.37;;;;;;;2.48;70.10;101057.19;6071818;28;20353;-70
2023/04/07 03:18:20;;;;;;;17.27;7.27;;;;;;;2.39;70.54;101059.41;6072841;28;20445;-70
2023/04/07 03:21:15;;;;;;;16.47;7.90;;;;;;;2.50;69.92;101060.59;6073342;28;20129;-69
2023/04/07 03:24:11;;;;;;;16.43;8.13;;;;;;;2.45;69.39;101052.16;6072370;28;20054;-70
2023/04/07 03:27:06;;;;;;;14.83;7.13;;;;;;;2.42;69.45;101062.78;6073112;28;20279;-71
2023/04/07 03:30:02;;;;;;;14.73;7.15;;;;;;;2.51;70.67;101072.72;6073015;28;20037;-70
2023/04/07 03:32:57;;;;;;;14.95;6.75;;;;;;;2.42;69.38;101059.22;6072816;28;20083;-71
2023/04/07 03:35:52;;;;;;;16.10;7.07;;;;;;;2.41;68.46;101056.72;6077312;28;20039;-70
2023/04/07 03:38:47;;;;;;;15.50;6.93;;;;;;;2.56;68.87;101066.31;6077350;28;20034;-70
2023/04/07 03:41:43;;;;;;;15.60;7.00;;;;;;;2.46;69.53;101059.91;6077771;28;20112;-70
2023/04/07 03:44:38;;;;;;;13.13;7.20;;;;;;;2.38;69.50;101046.41;6082511;28;20029;-70
2023/04/07 03:47:33;;;;;;;12.13;6.73;;;;;;;2.42;69.30;101049.72;6077153;28;20076;-70
2023/04/07 03:50:29;;;;;;;11.87;6.53;;;;;;;2.51;68.86;101072.72;6077422;28;20021;-70
2023/04/07 03:53:24;;;;;;;14.43;6.85;;;;;;;2.46;70.04;101064.28;6076620;28;20470;-71
2023/04/07 03:56:19;;;;;;;14.90;6.97;;;;;;;2.42;68.88;101062.78;6077162;28;20041;-70
2023/04/07 03:59:15;;;;;;;14.55;6.70;;;;;;;2.46;69.79;101066.91;6077324;28;20056;-70
2023/04/07 04:02:10;;;;;;;10.93;6.17;;;;;;;2.42;69.26;101074.94;6077039;28;20040;-70
2023/04/07 04:05:05;;;;;;;15.53;6.97;;;;;;;2.27;69.69;101060.09;6076175;28;20026;-70
2023/04/07 04:08:01;;;;;;;18.48;7.95;;;;;;;2.31;69.86;101077.28;6076291;28;20045;-71
2023/04/07 04:10:56;;;;;;;15.53;6.90;;;;;;;2.20;69.78;101073.59;6077096;28;20029;-70
2023/04/07 04:13:51;;;;;;;13.90;6.50;;;;;;;2.20;70.48;101073.59;6079580;28;20033;-69
2023/04/07 04:16:47;;;;;;;12.87;6.53;;;;;;;2.16;70.56;101072.91;6094380;28;20057;-69
2023/04/07 04:19:42;;;;;;;15.10;7.13;;;;;;;2.19;70.71;101085.84;6076684;28;20493;-70
2023/04/07 04:22:37;;;;;;;14.67;7.03;;;;;;;2.16;70.34;101083.38;6075249;28;20038;-70
2023/04/07 04:25:32;;;;;;;15.63;7.53;;;;;;;2.13;70.99;101078.31;6075636;28;20037;-70
2023/04/07 04:28:28;;;;;;;15.23;6.93;;;;;;;2.13;69.92;101085.31;6076378;28;20394;-70
2023/04/07 04:31:23;;;;;;;15.02;7.32;;;;;;;2.23;70.55;101091.72;6075767;28;20030;-70
2023/04/07 04:34:19;;;;;;;16.30;6.70;;;;;;;2.28;69.62;101095.78;6075755;28;20029;-71
2023/04/07 04:37:14;;;;;;;14.87;7.37;;;;;;;2.26;69.04;101079.31;6076011;28;20065;-70
2023/04/07 04:40:10;;;;;;;17.08;7.47;;;;;;;2.31;69.61;101077.28;6075642;28;20038;-70
2023/04/07 04:43:06;;;;;;;19.40;7.78;;;;;;;2.36;69.08;101096.19;6075870;28;20042;-70
2023/04/07 04:46:01;;;;;;;14.73;7.63;;;;;;;2.38;69.02;101089.13;6074232;28;20445;-70
2023/04/07 04:48:56;;;;;;;14.00;6.60;;;;;;;2.45;68.36;101104.50;6075588;28;20064;-71
2023/04/07 04:51:51;;;;;;;14.73;6.57;;;;;;;2.47;68.14;101097.41;6075555;28;20022;-70
2023/04/07 04:54:47;;;;;;;15.87;6.80;;;;;;;2.27;69.03;101091.50;6074877;28;20029;-70
2023/04/07 04:57:42;;;;;;;16.97;6.70;;;;;;;2.12;69.03;101081.84;6075638;28;20083;-70
2023/04/07 05:00:37;;;;;;;15.17;7.23;;;;;;;2.03;69.26;101089.38;6075354;28;20042;-70
2023/04/07 05:03:33;;;;;;;14.80;6.63;;;;;;;1.98;70.64;101112.31;6075059;28;20386;-70
2023/04/07 05:06:28;;;;;;;13.47;5.97;;;;;;;1.85;71.14;101099.03;6075198;28;20099;-70
2023/04/07 05:09:23;;;;;;;17.10;7.63;;;;;;;1.65;71.87;101096.63;6075481;28;20084;-70
2023/04/07 05:12:18;;;;;;;14.23;7.53;;;;;;;1.72;72.17;101114.50;6074841;28;20113;-70
2023/04/07 05:15:14;;;;;;;13.57;6.57;;;;;;;1.64;72.82;101106.22;6074341;28;20453;-70
2023/04/07 05:18:10;;;;;;;14.88;7.18;;;;;;;1.63;73.33;101101.09;6074458;28;20069;-70
2023/04/07 05:21:05;;;;;;;14.90;6.75;;;;;;;1.60;73.42;101119.53;6081071;28;20473;-70
2023/04/07 05:24:01;;;;;;;13.90;6.55;;;;;;;1.63;74.07;101108.94;6077941;28;20037;-70
2023/04/07 05:26:56;;;;;;;17.02;7.75;;;;;;;1.61;73.64;101111.63;6075060;28;20037;-71
2023/04/07 05:29:52;;;;;;;14.20;6.78;;;;;;;1.77;73.84;101116.88;6074335;28;20038;-69
2023/04/07 05:32:47;;;;;;;16.23;7.67;;;;;;;2.11;72.58;101113.34;6074788;28;20102;-69
2023/04/07 05:35:45;;;;;;;11.97;6.57;;;;;;;2.56;71.28;101109.94;6073949;28;20083;-69
2023/04/07 05:38:40;;;;;;;15.30;7.25;;;;;;;2.88;68.75;101107.22;6074632;28;20057;-69
2023/04/07 05:41:36;;;;;;;17.30;8.30;;;;;;;2.96;67.73;101107.63;6074446;28;20086;-69
2023/04/07 05:44:31;;;;;;;16.00;8.10;;;;;;;3.01;68.69;101115.22;6073719;28;20482;-70
2023/04/07 05:47:27;;;;;;;15.70;6.73;;;;;;;3.08;68.04;101119.16;6089078;28;20043;-70
2023/04/07 05:50:22;;;;;;;18.10;8.75;;;;;;;2.88;68.33;101135.19;6075441;28;20030;-70
2023/04/07 05:53:18;;;;;;;14.60;6.73;;;;;;;2.62;70.22;101128.78;6073303;28;20025;-70
2023/04/07 05:56:13;;;;;;;16.35;7.50;;;;;;;2.30;71.02;101127.09;6073658;28;20113;-70
2023/04/07 05:59:09;;;;;;;15.40;7.13;;;;;;;2.32;72.42;101147.03;6073123;28;20052;-70
2023/04/07 06:02:04;;;;;;;17.35;8.02;;;;;;;2.13;72.40;101127.16;6074375;28;20041;-70
2023/04/07 06:04:59;;;;;;;21.37;8.80;;;;;;;2.23;73.33;101149.28;6081602;28;20091;-69
2023/04/07 06:07:55;;;;;;;11.77;6.43;;;;;;;2.46;72.52;101148.03;6072802;28;20033;-69
2023/04/07 06:10:50;;;;;;;13.75;6.72;;;;;;;2.27;72.07;101138.59;6074324;28;20060;-69
2023/04/07 06:13:45;;;;;;;16.97;7.63;;;;;;;2.47;72.15;101131.41;6078469;28;20044;-69
2023/04/07 06:16:40;;;;;;;14.43;7.05;;;;;;;2.74;72.03;101137.75;6074065;28;20561;-68
2023/04/07 06:19:36;;;;;;;13.10;7.07;;;;;;;2.80;70.28;101137.41;6074180;28;20397;-69
2023/04/07 06:22:31;;;;;;;12.83;7.33;;;;;;;2.98;69.60;101138.97;6073432;28;20034;-69
2023/04/07 06:25:26;;;;;;;15.13;7.03;;;;;;;3.63;67.65;101153.47;6072782;28;20091;-69
2023/04/07 06:28:22;;;;;;;16.67;6.93;;;;;;;3.72;66.55;101154.72;6073814;28;20025;-71
2023/04/07 06:31:20;;;;;;;13.67;7.73;;;;;;;3.46;67.89;101143.97;6090498;28;20398;-69
2023/04/07 06:34:16;;;;;;;16.33;7.18;;;;;;;3.32;68.86;101146.56;6099713;28;20071;-69
2023/04/07 06:37:11;;;;;;;17.90;8.15;;;;;;;3.28;69.86;101154.69;6076617;28;20041;-69
2023/04/07 06:40:07;;;;;;;15.70;7.60;;;;;;;3.29;70.61;101140.69;6073565;28;20041;-70
2023/04/07 06:43:03;;;;;;;17.17;8.02;;;;;;;3.44;68.74;101156.34;6073605;28;20030;-70
2023/04/07 06:45:58;;;;;;;16.15;7.68;;;;;;;3.71;68.77;101143.38;6072770;28;20049;-69
2023/04/07 06:48:53;;;;;;;16.77;7.37;;;;;;;4.02;68.57;101143.19;6073346;28;20467;-69
2023/04/07 06:51:49;;;;;;;17.02;7.53;;;;;;;4.62;65.34;101156.91;6095076;28;20585;-69
2023/04/07 06:54:44;;;;;;;13.98;7.80;;;;;;;4.45;65.09;101149.28;6072350;28;20482;-70
2023/04/07 06:57:40;;;;;;;14.63;6.90;;;;;;;4.70;63.58;101140.69;6073321;28;20493;-70
2023/04/07 07:00:35;;;;;;;11.63;6.27;;;;;;;4.92;62.67;101154.09;6073403;28;20026;-70
2023/04/07 07:03:31;;;;;;;11.00;6.38;;;;;;;5.09;62.18;101147.75;6072329;28;20056;-71
2023/04/07 07:06:26;;;;;;;15.45;6.32;;;;;;;5.17;60.74;101148.94;6083396;28;20021;-71
2023/04/07 07:09:22;;;;;;;15.87;7.17;;;;;;;5.54;60.26;101165.75;6081672;28;20033;-71
2023/04/07 07:12:17;;;;;;;12.73;6.75;;;;;;;5.43;60.40;101149.00;6080836;28;20438;-69
2023/04/07 07:15:12;;;;;;;13.70;7.50;;;;;;;5.34;60.20;101138.16;6080098;28;20059;-69
2023/04/07 07:18:08;;;;;;;13.18;6.35;;;;;;;5.41;61.01;101149.09;6062956;28;20037;-69
2023/04/07 07:21:04;;;;;;;10.93;6.03;;;;;;;5.83;59.91;101155.88;6080705;28;20037;-70
2023/04/07 07:23:59;;;;;;;13.95;6.53;;;;;;;6.41;58.36;101157.97;6080568;28;20071;-69
2023/04/07 07:26:56;;;;;;;11.77;6.40;;;;;;;6.58;54.97;101157.59;6080576;28;20026;-70
2023/04/07 07:29:51;;;;;;;11.48;6.43;;;;;;;6.70;56.13;101154.09;6080698;28;20099;-70
2023/04/07 07:32:46;;;;;;;11.10;5.97;;;;;;;7.34;54.95;101159.94;6080218;28;20045;-71
2023/04/07 07:35:42;;;;;;;13.80;5.93;;;;;;;7.61;53.92;101161.31;6080247;28;20520;-70
2023/04/07 07:38:39;;;;;;;13.40;7.30;;;;;;;7.31;54.31;101152.25;6079930;28;20272;-69
2023/04/07 07:41:34;;;;;;;13.50;7.32;;;;;;;7.62;53.19;101173.56;6080867;28;20095;-69
2023/04/07 07:44:29;;;;;;;13.67;6.10;;;;;;;7.68;52.61;101165.19;6079720;28;20033;-70
2023/04/07 07:47:25;;;;;;;11.93;5.83;;;;;;;7.67;52.90;101175.84;6080100;28;20375;-71
2023/04/07 07:50:21;;;;;;;10.40;5.85;;;;;;;7.54;53.77;101169.81;6062746;28;20044;-70
2023/04/07 07:53:16;;;;;;;10.13;5.28;;;;;;;7.88;51.78;101171.56;6079639;28;20091;-69
2023/04/07 07:56:12;;;;;;;12.70;5.70;;;;;;;8.37;50.90;101180.06;6079979;28;20041;-70
2023/04/07 07:59:07;;;;;;;13.63;6.03;;;;;;;8.66;50.47;101179.56;6080310;28;20036;-71
2023/04/07 08:02:02;;;;;;;10.13;5.40;;;;;;;9.10;49.69;101176.81;6080384;28;20037;-69
2023/04/07 08:04:58;;;;;;;12.23;5.83;;;;;;;9.07;47.89;101184.16;6079701;28;20033;-71
2023/04/07 08:07:54;;;;;;;10.98;6.10;;;;;;;9.08;47.94;101191.97;6080340;28;20044;-70
2023/04/07 08:10:49;;;;;;;10.27;5.72;;;;;;;9.06;47.74;101174.53;6080512;28;20079;-69
2023/04/07 08:13:45;;;;;;;14.03;5.87;;;;;;;9.29;47.45;101181.44;6079074;28;20395;-70
2023/04/07 08:16:40;;;;;;;11.95;5.35;;;;;;;9.58;47.16;101183.34;6080566;28;20267;-72
2023/04/07 08:19:35;;;;;;;12.13;5.50;;;;;;;9.39;46.56;101185.00;6079037;28;20055;-70
2023/04/07 08:22:31;;;;;;;14.63;6.33;;;;;;;9.63;47.06;101179.47;6079952;28;20025;-69
2023/04/07 08:25:27;;;;;;;11.63;6.33;;;;;;;9.40;47.13;101176.94;6075904;28;20040;-70
2023/04/07 08:28:23;;;;;;;12.45;6.22;;;;;;;9.87;46.25;101190.66;6075943;28;20276;-70
2023/04/07 08:31:18;;;;;;;12.90;6.07;;;;;;;9.69;45.83;101186.91;6076153;28;20486;-71
2023/04/07 08:34:15;;;;;;;11.30;5.77;;;;;;;9.89;45.60;101180.78;6075596;28;20067;-71
2023/04/07 08:37:11;;;;;;;15.30;6.50;;;;;;;9.87;45.47;101190.66;6075919;28;20436;-71
2023/04/07 08:40:06;;;;;;;14.00;5.78;;;;;;;10.14;44.88;101201.56;6076196;28;20041;-70
2023/04/07 08:43:06;;;;;;;11.68;5.70;;;;;;;10.11;44.95;101200.00;6075572;28;20372;-71
2023/04/07 08:46:11;;;;;;;11.75;5.55;;;;;;;10.45;44.02;101192.69;6058734;28;20044;-70
2023/04/07 08:49:09;;;;;;;10.23;5.18;;;;;;;10.20;43.30;101179.84;6074464;28;20023;-71
2023/04/07 08:52:06;;;;;;;11.57;5.55;;;;;;;10.46;42.61;101193.53;6084338;28;20129;-72
2023/04/07 08:55:02;;;;;;;10.80;6.18;;;;;;;10.33;42.80;101185.78;6090191;28;20079;-70
2023/04/07 08:57:58;;;;;;;10.60;5.68;;;;;;;10.61;43.38;101195.66;6075645;28;20033;-71
2023/04/07 09:00:53;;;;;;;10.40;5.75;;;;;;;10.70;42.26;101194.88;6045488;28;20366;-70
2023/04/07 09:03:49;;;;;;;9.95;6.15;;;;;;;10.46;42.37;101198.81;6090397;28;20499;-69
2023/04/07 09:06:44;;;;;;;10.02;5.18;;;;;;;10.46;41.32;101212.91;6055699;28;20095;-69
2023/04/07 09:09:40;;;;;;;10.50;4.97;;;;;;;10.67;42.75;101196.94;6072480;28;20037;-70
2023/04/07 09:12:35;;;;;;;14.30;5.57;;;;;;;10.87;41.79;101195.19;6072554;28;20037;-70
2023/04/07 09:15:31;;;;;;;11.50;6.22;;;;;;;10.83;41.69;101213.19;6087627;28;20021;-70
2023/04/07 09:18:27;;;;;;;9.83;5.27;;;;;;;11.09;40.87;101197.59;6072966;28;20037;-69
2023/04/07 09:21:22;;;;;;;16.00;6.80;;;;;;;11.11;40.56;101212.44;6074336;28;20143;-72
2023/04/07 09:24:25;;;;;;;14.13;5.50;;;;;;;10.75;40.47;101190.00;6073929;28;20589;-71
2023/04/07 09:27:21;;;;;;;13.68;5.43;;;;;;;10.95;41.11;101203.31;6074693;28;20087;-70
2023/04/07 09:30:16;;;;;;;12.77;5.63;;;;;;;10.86;39.87;101193.50;6074846;28;20033;-70
2023/04/07 09:33:15;;;;;;;12.13;5.37;;;;;;;10.95;40.13;101200.66;6074453;28;20604;-72
2023/04/07 09:36:11;;;;;;;10.70;5.13;;;;;;;10.71;40.13;101204.47;6074704;28;20022;-71
2023/04/07 09:39:09;;;;;;;13.50;5.50;;;;;;;10.74;40.08;101193.59;6074178;28;20045;-72
2023/04/07 09:42:06;;;;;;;9.95;4.22;;;;;;;11.15;39.02;101197.03;6074507;28;20036;-70
2023/04/07 09:45:02;;;;;;;12.38;5.18;;;;;;;11.16;39.04;101198.72;6073856;28;20034;-71
2023/04/07 09:47:57;;;;;;;10.15;5.00;;;;;;;11.14;39.04;101192.72;6074194;28;20107;-71
2023/04/07 09:51:04;;;;;;;10.57;5.00;;;;;;;11.04;38.24;101215.75;6074698;28;20033;-71
2023/04/07 09:53:59;;;;;;;10.65;4.30;;;;;;;10.51;39.58;101215.16;6073170;28;20033;-72
2023/04/07 09:56:56;;;;;;;8.87;4.27;;;;;;;10.34;39.77;101216.63;6074350;28;20394;-71
2023/04/07 09:59:53;;;;;;;10.35;4.15;;;;;;;10.67;39.56;101200.44;6074026;28;20042;-71
2023/04/07 10:02:49;;;;;;;9.10;4.72;;;;;;;11.06;38.72;101209.31;6056437;28;20497;-70
2023/04/07 10:05:45;;;;;;;7.22;3.85;;;;;;;11.17;38.95;101195.91;6073375;28;20033;-73
2023/04/07 10:08:41;;;;;;;10.93;4.70;;;;;;;11.42;39.39;101210.47;6073564;28;20068;-71
2023/04/07 10:11:37;;;;;;;8.50;4.75;;;;;;;11.52;38.98;101208.69;6074066;28;20021;-72
2023/04/07 10:14:34;;;;;;;8.88;4.90;;;;;;;11.76;37.49;101202.97;6048453;28;20084;-72
2023/04/07 10:17:31;;;;;;;11.05;4.43;;;;;;;11.66;37.71;101215.41;6069781;28;20037;-72
2023/04/07 10:20:27;;;;;;;7.93;4.38;;;;;;;11.54;38.34;101213.84;6073736;28;20029;-73
2023/04/07 10:23:50;;;;;;;8.98;4.32;;;;;;;11.86;37.80;101217.91;6089022;28;20033;-73
2023/04/07 10:27:03;;;;;;;11.68;4.28;;;;;;;11.54;37.07;101203.22;6073981;28;20157;-73
2023/04/07 10:29:59;;;;;;;11.15;5.22;;;;;;;11.68;37.96;101216.94;6040479;28;20116;-73
2023/04/07 10:32:54;;;;;;;10.73;5.35;;;;;;;11.74;37.86;101204.94;6073998;28;20038;-73
2023/04/07 10:36:03;;;;;;;8.40;4.60;;;;;;;11.76;36.39;101210.94;6072844;28;20107;-72
2023/04/07 10:39:19;;;;;;;10.90;5.05;;;;;;;12.02;38.03;101221.78;6073891;28;20052;-72
2023/04/07 10:42:36;;;;;;;10.80;5.45;;;;;;;11.84;37.88;101222.53;6072818;28;20071;-72
2023/04/07 10:45:52;;;;;;;11.35;5.30;;;;;;;12.19;37.49;101221.91;6059577;28;20037;-72
2023/04/07 10:49:08;;;;;;;11.02;4.97;;;;;;;12.30;37.34;101204.94;6073518;28;20508;-71
2023/04/07 10:52:13;;;;;;;9.13;4.68;;;;;;;12.31;37.69;101214.59;6073389;28;20041;-72
2023/04/07 10:55:37;;;;;;;11.35;5.20;;;;;;;12.41;37.78;101205.59;6073104;28;20112;-71
2023/04/07 10:58:33;;;;;;;8.77;4.63;;;;;;;12.53;37.10;101214.22;6073470;28;20482;-71
2023/04/07 11:01:28;;;;;;;11.10;5.67;;;;;;;12.43;37.11;101210.78;6073502;28;20041;-72
2023/04/07 11:04:23;;;;;;;10.00;4.87;;;;;;;12.54;36.25;101210.59;6072415;28;20825;-72
2023/04/07 11:07:42;;;;;;;14.33;6.63;;;;;;;12.35;36.89;101210.66;6073922;28;20041;-72
2023/04/07 11:10:37;;;;;;;10.50;4.55;;;;;;;12.00;36.50;101199.84;6099916;28;20025;-72
2023/04/07 11:13:42;;;;;;;10.77;4.70;;;;;;;12.20;37.36;101212.13;6054250;28;20676;-71
2023/04/07 11:16:40;;;;;;;11.63;5.47;;;;;;;12.29;37.05;101205.91;6072902;28;20269;-72
2023/04/07 11:19:49;;;;;;;11.27;4.70;;;;;;;12.39;37.76;101214.72;6071971;28;20041;-71
2023/04/07 11:22:59;;;;;;;10.75;5.32;;;;;;;12.89;37.07;101215.19;6080397;28;20037;-72
2023/04/07 11:26:01;;;;;;;9.32;5.15;;;;;;;12.85;36.06;101216.47;6073692;28;20128;-71
2023/04/07 11:28:58;;;;;;;10.52;5.10;;;;;;;12.89;36.02;101200.03;6073262;28;20488;-72
2023/04/07 11:31:53;;;;;;;9.73;4.65;;;;;;;12.88;35.05;101210.84;6072635;28;20037;-72
2023/04/07 11:34:48;;;;;;;12.00;5.32;;;;;;;12.77;36.06;101209.25;6087674;28;20036;-72
2023/04/07 11:37:44;;;;;;;20.93;9.13;;;;;;;12.76;37.25;101204.88;6073121;28;20037;-72
2023/04/07 11:40:40;;;;;;;9.73;5.07;;;;;;;12.91;36.79;101208.72;6072781;28;20034;-72
2023/04/07 11:43:36;;;;;;;10.98;4.57;;;;;;;12.90;36.92;101212.38;6072489;28;20421;-72
2023/04/07 11:46:31;;;;;;;9.90;4.65;;;;;;;12.60;36.51;101201.19;6072218;28;20049;-71
2023/04/07 11:49:27;;;;;;;11.10;4.50;;;;;;;13.02;36.73;101216.50;6073048;28;20727;-71
2023/04/07 11:52:22;;;;;;;8.40;4.17;;;;;;;13.25;36.00;101211.63;6072962;28;20280;-70
2023/04/07 11:55:20;;;;;;;7.77;3.93;;;;;;;12.93;35.60;101193.44;6072667;28;20291;-71
2023/04/07 11:58:15;;;;;;;7.60;3.85;;;;;;;12.69;35.69;101193.13;6077260;28;20630;-72
2023/04/07 12:01:12;;;;;;;8.90;4.30;;;;;;;13.06;36.06;101191.25;6076380;28;20041;-70
2023/04/07 12:04:12;;;;;;;7.15;4.20;;;;;;;13.13;35.51;101196.03;6076542;28;20090;-71
2023/04/07 12:07:08;;;;;;;9.98;4.80;;;;;;;12.85;34.99;101204.00;6076740;28;20491;-70
2023/04/07 12:10:20;;;;;;;11.30;4.60;;;;;;;13.13;35.51;101216.31;6076827;28;20042;-72
2023/04/07 12:13:16;;;;;;;7.93;4.20;;;;;;;13.56;35.30;101199.59;6067574;28;20037;-72
2023/04/07 12:16:11;;;;;;;6.53;3.60;;;;;;;13.91;35.52;101219.22;6075927;28;20042;-71
2023/04/07 12:19:07;;;;;;;7.70;4.03;;;;;;;13.47;35.99;101208.53;6076799;28;20033;-72
2023/04/07 12:22:02;;;;;;;8.55;4.20;;;;;;;13.50;35.69;101210.03;6076347;28;20114;-71
2023/04/07 12:24:57;;;;;;;8.10;3.77;;;;;;;13.93;35.73;101201.22;6075707;28;20025;-72
2023/04/07 12:27:53;;;;;;;8.73;4.57;;;;;;;13.72;35.80;101196.25;6076328;28;20112;-72
2023/04/07 12:30:48;;;;;;;7.07;3.87;;;;;;;13.60;35.47;101189.47;6076234;28;20049;-71
2023/04/07 12:33:43;;;;;;;6.93;3.67;;;;;;;13.20;34.72;101187.28;6075804;28;20026;-72
2023/04/07 12:36:38;;;;;;;8.13;3.97;;;;;;;13.64;34.52;101206.84;6075485;28;20114;-70
2023/04/07 12:39:34;;;;;;;7.93;3.93;;;;;;;13.25;34.23;101200.13;6076240;28;20490;-71
2023/04/07 12:42:29;;;;;;;7.90;3.50;;;;;;;13.81;34.69;101208.63;6076089;28;20040;-72
2023/04/07 12:45:25;;;;;;;8.57;3.33;;;;;;;14.11;33.76;101200.19;6074943;28;20680;-71
2023/04/07 12:48:20;;;;;;;7.88;3.80;;;;;;;13.65;33.48;101197.84;6076177;28;20287;-70
2023/04/07 12:51:15;;;;;;;9.30;4.63;;;;;;;13.38;32.94;101213.91;6075746;28;20475;-72
2023/04/07 12:54:10;;;;;;;9.20;3.43;;;;;;;13.57;33.77;101208.41;6075102;28;20304;-71
2023/04/07 12:57:06;;;;;;;8.10;3.87;;;;;;;13.29;32.77;101214.84;6075535;28;20028;-72
2023/04/07 13:00:01;;;;;;;7.30;3.50;;;;;;;13.38;33.66;101195.25;6075924;28;20041;-72
2023/04/07 13:02:57;;;;;;;7.60;3.37;;;;;;;13.49;33.42;101197.69;6075487;28;20100;-73
2023/04/07 13:05:54;;;;;;;8.68;4.07;;;;;;;13.21;33.59;101214.75;6074265;28;20428;-73
2023/04/07 13:08:50;;;;;;;8.48;3.80;;;;;;;13.29;32.76;101198.84;6075500;28;20045;-71
2023/04/07 13:11:46;;;;;;;11.15;4.40;;;;;;;13.65;32.83;101203.16;6075098;28;20409;-72
2023/04/07 13:14:41;;;;;;;8.60;4.27;;;;;;;13.35;32.98;101204.38;6074743;28;20474;-72
2023/04/07 13:17:37;;;;;;;9.97;4.40;;;;;;;13.66;32.71;101204.84;6075238;28;20271;-74
2023/04/07 13:20:32;;;;;;;9.32;4.07;;;;;;;13.49;33.40;101203.03;6075107;28;20192;-73
2023/04/07 13:23:27;;;;;;;6.30;3.17;;;;;;;13.45;32.88;101197.16;6074293;28;20041;-69
2023/04/07 13:26:23;;;;;;;8.20;3.33;;;;;;;13.57;32.58;101200.44;6075244;28;20021;-72
2023/04/07 13:29:18;;;;;;;7.30;3.92;;;;;;;13.78;32.13;101202.78;6076682;28;20029;-70
2023/04/07 13:32:14;;;;;;;9.65;3.50;;;;;;;13.78;31.22;101206.25;6090087;28;20057;-71
2023/04/07 13:35:10;;;;;;;6.20;3.30;;;;;;;13.80;31.84;101200.78;6087687;28;20044;-72
2023/04/07 13:38:05;;;;;;;6.43;2.78;;;;;;;13.92;32.21;101200.38;6074838;28;20037;-71
2023/04/07 13:41:02;;;;;;;6.67;3.43;;;;;;;14.22;31.33;101209.75;6074683;28;20046;-72